Time;durP1;ratioP1;P1;durP2;ratioP2;P2;SDS_P1;SDS_P2;PMS_P1;PMS_P2;Temp;Humidity;BMP_temperature;BMP_pressure;BME280_temperature;BME280_humidity;BME280_pressure;Samples;Min_cycle;Max_cycle;Signal;HPM_P1;HPM_P2
2024/01/14 00:04:24;;;;;;;64.00;28.20;;;;;0.80;101239.00;;;;9834441;29;20224;-86
2024/01/14 00:09:25;;;;;;;68.30;28.57;;;;;0.80;101225.00;;;;9833753;29;20251;-84
2024/01/14 00:14:27;;;;;;;63.87;28.13;;;;;0.90;101216.00;;;;9827120;29;20240;-85
2024/01/14 00:19:28;;;;;;;59.40;27.37;;;;;0.90;101203.00;;;;9829438;29;20247;-83
2024/01/14 00:24:29;;;;;;;57.53;26.93;;;;;0.90;101203.00;;;;9834917;29;20264;-84
2024/01/14 00:29:30;;;;;;;62.90;27.37;;;;;0.90;101205.00;;;;9825181;29;20247;-83
2024/01/14 00:34:31;;;;;;;65.57;28.53;;;;;0.90;101204.00;;;;9837137;29;20228;-84
2024/01/14 00:39:39;;;;;;;58.70;24.53;;;;;0.90;101192.00;;;;9840429;29;20239;-86
2024/01/14 00:44:42;;;;;;;56.97;27.77;;;;;0.90;101185.00;;;;9806082;29;20247;-85
2024/01/14 00:49:43;;;;;;;53.80;24.63;;;;;0.90;101183.00;;;;9817254;29;20449;-84
2024/01/14 00:54:44;;;;;;;55.73;26.80;;;;;0.90;101190.00;;;;9802773;29;20256;-85
2024/01/14 00:59:45;;;;;;;57.43;24.73;;;;;0.90;101206.00;;;;9837824;29;20238;-83
2024/01/14 01:04:47;;;;;;;50.67;24.83;;;;;0.90;101197.00;;;;9845776;29;20232;-85
2024/01/14 01:09:48;;;;;;;63.73;27.23;;;;;0.90;101196.00;;;;9825456;29;20287;-86
2024/01/14 01:14:49;;;;;;;65.30;27.50;;;;;0.90;101188.00;;;;9820866;29;20261;-85
2024/01/14 01:19:50;;;;;;;62.83;28.00;;;;;0.90;101189.00;;;;9837442;29;20232;-85
2024/01/14 01:24:52;;;;;;;61.00;26.40;;;;;0.90;101174.00;;;;9835257;29;20331;-84
2024/01/14 01:29:53;;;;;;;63.07;28.03;;;;;0.90;101175.00;;;;9817773;29;20235;-81
2024/01/14 01:34:55;;;;;;;60.43;26.27;;;;;0.80;101164.00;;;;9810621;29;20307;-81
2024/01/14 01:39:56;;;;;;;61.10;26.13;;;;;0.80;101162.00;;;;9819755;29;20228;-81
2024/01/14 01:44:57;;;;;;;60.97;25.50;;;;;0.80;101138.00;;;;9850970;29;20695;-81
2024/01/14 01:49:59;;;;;;;56.80;25.50;;;;;0.80;101137.00;;;;9828769;29;20236;-80
2024/01/14 01:55:02;;;;;;;56.80;25.30;;;;;0.80;101126.00;;;;9835270;29;20239;-81
2024/01/14 02:00:08;;;;;;;63.60;26.50;;;;;0.80;101112.00;;;;9833947;29;21003;-82
2024/01/14 02:05:13;;;;;;;64.43;27.67;;;;;0.80;101126.00;;;;9815081;29;20818;-81
2024/01/14 02:10:15;;;;;;;54.33;24.63;;;;;0.80;101120.00;;;;9819099;29;20232;-81
2024/01/14 02:15:16;;;;;;;59.13;24.37;;;;;0.80;101119.00;;;;9820842;29;20254;-81
2024/01/14 02:20:17;;;;;;;56.47;24.87;;;;;0.80;101087.00;;;;9828634;29;20315;-82
2024/01/14 02:25:18;;;;;;;53.00;25.30;;;;;0.70;101088.00;;;;9831869;29;20600;-81
2024/01/14 02:30:20;;;;;;;57.20;24.80;;;;;0.70;101091.00;;;;9803846;29;20367;-81
2024/01/14 02:35:22;;;;;;;55.07;24.87;;;;;0.70;101083.00;;;;9817124;29;20938;-81
2024/01/14 02:40:23;;;;;;;58.00;24.63;;;;;0.70;101073.00;;;;9813771;29;20239;-78
2024/01/14 02:45:24;;;;;;;57.63;24.57;;;;;0.70;101067.00;;;;9814898;29;20232;-78
2024/01/14 02:50:25;;;;;;;57.23;23.47;;;;;0.70;101071.00;;;;9817496;29;20704;-78
2024/01/14 02:55:26;;;;;;;53.10;22.43;;;;;0.70;101068.00;;;;9820169;29;20721;-78
2024/01/14 03:00:27;;;;;;;56.90;24.43;;;;;0.70;101066.00;;;;9835952;29;20248;-78
2024/01/14 03:05:29;;;;;;;61.97;25.13;;;;;0.70;101057.00;;;;9829189;29;20323;-79
2024/01/14 03:10:30;;;;;;;58.47;23.80;;;;;0.70;101051.00;;;;9828292;29;20242;-78
2024/01/14 03:15:31;;;;;;;53.17;24.47;;;;;0.70;101060.00;;;;9829700;29;20772;-79
2024/01/14 03:20:32;;;;;;;55.97;24.00;;;;;0.70;101066.00;;;;9814488;29;20239;-79
2024/01/14 03:25:33;;;;;;;57.80;25.40;;;;;0.70;101065.00;;;;9818792;29;20240;-79
2024/01/14 03:30:35;;;;;;;62.80;25.87;;;;;0.60;101054.00;;;;9827351;29;20220;-78
2024/01/14 03:35:36;;;;;;;55.60;25.33;;;;;0.60;101057.00;;;;9833648;29;20298;-79
2024/01/14 03:40:37;;;;;;;61.13;24.53;;;;;0.60;101047.00;;;;9847444;29;20235;-79
2024/01/14 03:45:38;;;;;;;58.03;24.80;;;;;0.60;101030.00;;;;9833560;29;20252;-78
2024/01/14 03:50:40;;;;;;;57.43;26.13;;;;;0.60;101026.00;;;;9835901;29;20805;-85
2024/01/14 03:55:42;;;;;;;59.27;24.63;;;;;0.60;101026.00;;;;9826155;29;20643;-85
2024/01/14 04:00:43;;;;;;;55.73;24.03;;;;;0.60;101012.00;;;;9837319;29;20658;-85
2024/01/14 04:05:45;;;;;;;56.40;22.80;;;;;0.60;101015.00;;;;9832182;29;20244;-85
2024/01/14 04:10:46;;;;;;;51.97;22.53;;;;;0.60;101001.00;;;;9820407;30;20250;-85
2024/01/14 04:15:47;;;;;;;57.83;24.10;;;;;0.60;101007.00;;;;9840475;29;20243;-85
2024/01/14 04:20:48;;;;;;;54.60;24.17;;;;;0.60;101001.00;;;;9830462;29;20229;-84
2024/01/14 04:25:50;;;;;;;52.70;23.03;;;;;0.60;100997.00;;;;9822257;30;20323;-84
2024/01/14 04:30:53;;;;;;;57.67;24.13;;;;;0.60;100989.00;;;;9843464;29;20254;-85
2024/01/14 04:35:55;;;;;;;55.83;22.30;;;;;0.60;100985.00;;;;9831787;29;20240;-85
2024/01/14 04:40:56;;;;;;;56.77;23.80;;;;;0.60;100978.00;;;;9840762;29;20243;-85
2024/01/14 04:45:58;;;;;;;51.60;23.47;;;;;0.50;100973.00;;;;9834716;29;20244;-85
2024/01/14 04:50:59;;;;;;;59.20;24.37;;;;;0.50;100965.00;;;;9820339;29;20310;-85
2024/01/14 04:56:05;;;;;;;47.77;21.27;;;;;0.50;100960.00;;;;9827617;29;20255;-83
2024/01/14 05:01:07;;;;;;;51.77;22.30;;;;;0.50;100944.00;;;;9808388;29;20262;-81
2024/01/14 05:06:08;;;;;;;53.57;20.53;;;;;0.50;100949.00;;;;9793064;29;20247;-81
2024/01/14 05:11:10;;;;;;;44.33;20.60;;;;;0.50;100938.00;;;;9812466;29;20272;-81
2024/01/14 05:16:11;;;;;;;52.27;22.80;;;;;0.50;100938.00;;;;9798460;29;20972;-81
2024/01/14 05:21:16;;;;;;;49.87;22.17;;;;;0.50;100941.00;;;;9830409;29;20301;-81
2024/01/14 05:26:17;;;;;;;49.37;21.07;;;;;0.50;100946.00;;;;9833445;29;20269;-81
2024/01/14 05:31:18;;;;;;;51.30;21.17;;;;;0.50;100951.00;;;;9820652;29;20315;-81
2024/01/14 05:36:20;;;;;;;58.37;21.90;;;;;0.50;100946.00;;;;9805342;29;20236;-81
2024/01/14 05:41:21;;;;;;;50.97;20.97;;;;;0.50;100929.00;;;;9813991;29;21192;-82
2024/01/14 05:46:22;;;;;;;58.13;22.53;;;;;0.40;100939.00;;;;9819328;29;20232;-81
2024/01/14 05:51:23;;;;;;;51.03;21.90;;;;;0.50;100937.00;;;;9816666;29;20256;-81
2024/01/14 05:56:26;;;;;;;55.53;22.80;;;;;0.40;100934.00;;;;9831942;29;20250;-81
2024/01/14 06:01:29;;;;;;;45.67;21.07;;;;;0.40;100927.00;;;;9817372;29;20915;-81
2024/01/14 06:06:30;;;;;;;44.73;20.10;;;;;0.40;100915.00;;;;9803702;29;20631;-82
2024/01/14 06:11:31;;;;;;;47.90;20.07;;;;;0.40;100920.00;;;;9824354;29;20251;-84
2024/01/14 06:16:32;;;;;;;42.80;20.60;;;;;0.40;100921.00;;;;9880426;29;20731;-83
2024/01/14 06:21:39;;;;;;;55.43;22.23;;;;;0.50;100896.00;;;;9845205;29;20262;-85
2024/01/14 06:26:40;;;;;;;48.57;19.80;;;;;0.50;100909.00;;;;9835919;29;20232;-84
2024/01/14 06:31:51;;;;;;;58.43;23.40;;;;;0.50;100894.00;;;;9850542;29;20248;-85
2024/01/14 06:36:52;;;;;;;52.30;21.47;;;;;0.50;100893.00;;;;9820072;29;20235;-85
2024/01/14 06:41:53;;;;;;;53.10;21.43;;;;;0.50;100887.00;;;;9813793;30;20237;-85
2024/01/14 06:46:55;;;;;;;47.50;20.20;;;;;0.50;100884.00;;;;9839238;29;20286;-83
2024/01/14 06:51:56;;;;;;;42.20;17.13;;;;;0.50;100881.00;;;;9830290;29;20247;-82
2024/01/14 06:56:57;;;;;;;43.73;19.93;;;;;0.40;100868.00;;;;9848264;29;20239;-84
2024/01/14 07:01:58;;;;;;;46.23;20.93;;;;;0.40;100862.00;;;;9848036;29;20247;-84
2024/01/14 07:06:59;;;;;;;52.63;22.27;;;;;0.50;100859.00;;;;9828946;29;20318;-85
2024/01/14 07:12:03;;;;;;;48.40;21.03;;;;;0.40;100853.00;;;;9819081;29;20220;-85
2024/01/14 07:17:04;;;;;;;47.37;20.23;;;;;0.40;100838.00;;;;9834258;29;20239;-85
2024/01/14 07:22:06;;;;;;;47.23;20.90;;;;;0.50;100837.00;;;;9821993;29;20896;-85
2024/01/14 07:27:07;;;;;;;37.57;16.20;;;;;0.50;100844.00;;;;9825800;29;20301;-84
2024/01/14 07:32:08;;;;;;;43.57;18.07;;;;;0.50;100832.00;;;;9811886;29;20238;-84
2024/01/14 07:37:09;;;;;;;45.53;19.97;;;;;0.50;100833.00;;;;9805671;30;20236;-84
2024/01/14 07:42:10;;;;;;;40.70;18.03;;;;;0.50;100838.00;;;;9814674;29;20244;-85
2024/01/14 07:47:12;;;;;;;50.83;20.10;;;;;0.50;100833.00;;;;9826605;30;20894;-84
2024/01/14 07:52:13;;;;;;;46.37;19.47;;;;;0.50;100843.00;;;;9823242;29;20234;-85
2024/01/14 07:57:14;;;;;;;44.03;19.27;;;;;0.50;100844.00;;;;9820850;29;20243;-84
2024/01/14 08:02:16;;;;;;;50.60;21.50;;;;;0.60;100855.00;;;;9819960;29;20840;-84
2024/01/14 08:07:17;;;;;;;46.77;20.30;;;;;0.60;100856.00;;;;9820956;29;20231;-84
2024/01/14 08:12:18;;;;;;;42.80;19.30;;;;;0.60;100852.00;;;;9818898;29;20234;-83
2024/01/14 08:17:19;;;;;;;41.77;17.27;;;;;0.60;100848.00;;;;9822265;29;20262;-83
2024/01/14 08:22:20;;;;;;;47.43;18.23;;;;;0.70;100844.00;;;;9819558;29;20243;-84
2024/01/14 08:27:22;;;;;;;43.33;19.60;;;;;0.70;100846.00;;;;9809082;29;20432;-85
2024/01/14 08:32:23;;;;;;;42.13;19.00;;;;;0.80;100838.00;;;;9806455;29;20256;-84
2024/01/14 08:37:27;;;;;;;38.07;18.00;;;;;0.80;100838.00;;;;9818650;29;20293;-85
2024/01/14 08:42:28;;;;;;;33.40;16.60;;;;;0.80;100831.00;;;;9829864;29;20323;-84
2024/01/14 08:47:30;;;;;;;44.27;19.90;;;;;0.90;100829.00;;;;9820244;29;20258;-84
2024/01/14 08:52:31;;;;;;;39.63;18.33;;;;;0.90;100824.00;;;;9804763;29;20284;-84
2024/01/14 08:57:32;;;;;;;38.37;16.30;;;;;0.90;100826.00;;;;9830646;29;20373;-84
2024/01/14 09:02:33;;;;;;;42.27;17.70;;;;;0.90;100825.00;;;;9828284;29;20247;-83
2024/01/14 09:07:35;;;;;;;40.80;19.23;;;;;1.00;100819.00;;;;9847364;29;20275;-83
2024/01/14 09:12:36;;;;;;;42.63;17.07;;;;;1.00;100810.00;;;;9826549;29;20244;-86
2024/01/14 09:17:37;;;;;;;41.73;18.87;;;;;1.10;100813.00;;;;9847348;29;20280;-83
2024/01/14 09:22:39;;;;;;;42.93;18.90;;;;;1.20;100814.00;;;;9819779;29;20332;-84
2024/01/14 09:27:40;;;;;;;37.77;17.60;;;;;1.30;100812.00;;;;9821298;29;20228;-84
2024/01/14 09:32:41;;;;;;;40.60;16.43;;;;;1.30;100814.00;;;;9822670;29;20228;-83
2024/01/14 09:37:43;;;;;;;36.67;17.17;;;;;1.30;100826.00;;;;9821914;29;20320;-85
2024/01/14 09:42:44;;;;;;;37.00;17.27;;;;;1.20;100826.00;;;;9835877;29;20896;-84
2024/01/14 09:47:46;;;;;;;38.57;17.90;;;;;1.30;100815.00;;;;9821063;29;20252;-84
2024/01/14 09:52:50;;;;;;;36.40;17.37;;;;;1.40;100804.00;;;;9822729;30;20240;-84
2024/01/14 09:57:52;;;;;;;34.57;17.03;;;;;1.50;100799.00;;;;9801956;29;20240;-84
2024/01/14 10:02:54;;;;;;;39.13;17.57;;;;;1.60;100792.00;;;;9823697;29;20231;-83
2024/01/14 10:07:55;;;;;;;32.33;14.40;;;;;1.70;100790.00;;;;9817865;29;20459;-84
2024/01/14 10:12:57;;;;;;;33.37;15.50;;;;;1.90;100787.00;;;;9822344;29;20288;-84
2024/01/14 10:17:58;;;;;;;30.67;16.10;;;;;2.00;100780.00;;;;9818104;29;20232;-83
2024/01/14 10:22:59;;;;;;;30.67;15.27;;;;;2.10;100769.00;;;;9820609;29;20244;-84
2024/01/14 10:28:04;;;;;;;26.60;12.90;;;;;2.10;100767.00;;;;9810880;29;20704;-85
2024/01/14 10:33:06;;;;;;;26.33;14.03;;;;;2.20;100760.00;;;;9838959;30;20228;-84
2024/01/14 10:38:23;;;;;;;27.03;14.20;;;;;2.20;100741.00;;;;9825243;29;20239;-83
2024/01/14 10:43:26;;;;;;;30.70;15.97;;;;;2.30;100733.00;;;;9818217;29;20271;-83
2024/01/14 10:48:28;;;;;;;30.33;15.60;;;;;2.40;100736.00;;;;9808976;29;20400;-83
2024/01/14 10:54:00;;;;;;;34.07;16.07;;;;;2.50;100727.00;;;;9821346;29;20834;-83
2024/01/14 10:59:04;;;;;;;30.63;15.20;;;;;2.60;100715.00;;;;9823184;29;20297;-83
2024/01/14 11:04:07;;;;;;;33.83;17.10;;;;;2.60;100705.00;;;;9822827;29;20315;-83
2024/01/14 11:09:08;;;;;;;30.77;14.93;;;;;2.60;100706.00;;;;9822150;29;20282;-84
2024/01/14 11:14:16;;;;;;;27.60;15.67;;;;;2.60;100698.00;;;;9822616;29;20709;-82
2024/01/14 11:19:21;;;;;;;33.60;16.83;;;;;2.80;100667.00;;;;9848169;29;20234;-82
2024/01/14 11:24:37;;;;;;;35.23;16.23;;;;;3.00;100667.00;;;;9844687;29;20281;-83
2024/01/14 11:29:40;;;;;;;36.60;17.60;;;;;3.10;100662.00;;;;9836095;29;20232;-83
2024/01/14 11:34:47;;;;;;;33.77;16.67;;;;;2.90;100656.00;;;;9825210;29;20232;-84
2024/01/14 11:39:50;;;;;;;33.23;16.83;;;;;2.90;100647.00;;;;9819990;29;20247;-84
2024/01/14 11:44:53;;;;;;;31.50;16.73;;;;;2.90;100641.00;;;;9817536;30;20236;-83
2024/01/14 11:49:55;;;;;;;30.00;15.50;;;;;2.90;100625.00;;;;9818164;29;21794;-84
2024/01/14 11:54:56;;;;;;;32.93;17.27;;;;;2.70;100621.00;;;;9805117;29;20855;-83
2024/01/14 11:59:58;;;;;;;30.50;15.00;;;;;2.50;100613.00;;;;9818608;29;20863;-77
2024/01/14 12:05:18;;;;;;;29.20;14.17;;;;;2.50;100604.00;;;;9818809;29;20237;-83
2024/01/14 12:10:19;;;;;;;31.97;16.47;;;;;2.50;100583.00;;;;9823640;29;20236;-84
2024/01/14 12:15:21;;;;;;;36.17;17.40;;;;;2.50;100578.00;;;;9832311;29;20243;-83
2024/01/14 12:20:24;;;;;;;34.47;17.87;;;;;2.50;100564.00;;;;9832636;29;21163;-84
2024/01/14 12:25:26;;;;;;;37.70;17.70;;;;;2.50;100561.00;;;;9821126;29;20259;-82
2024/01/14 12:30:34;;;;;;;38.57;17.50;;;;;2.50;100542.00;;;;9833081;29;20228;-84
2024/01/14 12:35:37;;;;;;;40.20;18.43;;;;;2.50;100532.00;;;;9808884;29;20464;-83
2024/01/14 12:40:39;;;;;;;37.90;17.93;;;;;2.60;100529.00;;;;9814622;29;20264;-84
2024/01/14 12:45:47;;;;;;;35.20;17.67;;;;;2.50;100526.00;;;;9819612;29;20231;-83
2024/01/14 12:50:56;;;;;;;32.03;17.20;;;;;2.60;100504.00;;;;9846189;29;20937;-84
2024/01/14 12:56:08;;;;;;;33.93;17.27;;;;;2.50;100517.00;;;;9834353;29;20256;-84
2024/01/14 13:01:10;;;;;;;33.33;17.23;;;;;2.20;100506.00;;;;9820626;29;20314;-83
2024/01/14 13:06:12;;;;;;;39.00;18.00;;;;;1.90;100491.00;;;;9803556;29;20373;-84
2024/01/14 13:11:13;;;;;;;37.23;17.30;;;;;1.80;100499.00;;;;9805975;29;20251;-85
2024/01/14 13:16:14;;;;;;;30.43;17.20;;;;;1.90;100486.00;;;;9833644;29;20266;-86
2024/01/14 13:21:15;;;;;;;31.47;14.93;;;;;1.90;100480.00;;;;9821973;29;20293;-86
2024/01/14 13:26:17;;;;;;;31.93;13.83;;;;;1.70;100469.00;;;;9833748;29;20744;-84
2024/01/14 13:31:18;;;;;;;31.93;15.83;;;;;1.60;100464.00;;;;9834026;29;20557;-86
2024/01/14 13:36:19;;;;;;;32.97;16.60;;;;;1.60;100448.00;;;;9835615;29;23051;-88
2024/01/14 13:41:21;;;;;;;31.90;15.50;;;;;1.70;100436.00;;;;9842878;29;20244;-87
2024/01/14 13:46:22;;;;;;;29.80;14.87;;;;;1.80;100427.00;;;;9847455;29;20244;-87
2024/01/14 13:51:23;;;;;;;30.30;14.10;;;;;1.60;100425.00;;;;9846249;29;20264;-85
2024/01/14 13:56:25;;;;;;;32.03;15.70;;;;;1.40;100424.00;;;;9836079;29;20239;-88
2024/01/14 14:01:28;;;;;;;32.60;15.60;;;;;1.30;100414.00;;;;9833198;29;20235;-86
2024/01/14 14:06:49;;;;;;;36.17;16.83;;;;;1.30;100412.00;;;;9886777;29;20258;-85
2024/01/14 14:11:50;;;;;;;31.63;12.77;;;;;1.30;100402.00;;;;9843891;29;20293;-82
2024/01/14 14:16:52;;;;;;;31.77;15.20;;;;;1.30;100401.00;;;;9824033;29;20958;-84
2024/01/14 14:21:55;;;;;;;33.93;15.87;;;;;1.30;100403.00;;;;9829994;29;20243;-87
2024/01/14 14:27:02;;;;;;;34.00;15.40;;;;;1.30;100391.00;;;;9829632;29;20232;-83
2024/01/14 14:32:07;;;;;;;36.50;16.17;;;;;1.30;100394.00;;;;9866245;29;20278;-85
2024/01/14 14:37:08;;;;;;;31.13;15.30;;;;;1.20;100383.00;;;;9843438;29;20232;-87
2024/01/14 14:42:10;;;;;;;32.57;15.47;;;;;1.20;100374.00;;;;9944873;24;20251;-85
2024/01/14 14:47:11;;;;;;;33.67;14.97;;;;;1.20;100362.00;;;;9855596;29;20234;-85
2024/01/14 14:52:12;;;;;;;30.27;15.23;;;;;1.20;100354.00;;;;9880376;29;20228;-83
2024/01/14 14:57:13;;;;;;;27.60;12.37;;;;;1.20;100347.00;;;;9868522;29;20251;-86
2024/01/14 15:02:15;;;;;;;36.73;16.87;;;;;1.20;100315.00;;;;9867290;29;20238;-84
2024/01/14 15:07:16;;;;;;;34.00;14.93;;;;;1.10;100320.00;;;;9857911;29;20868;-83
2024/01/14 15:12:17;;;;;;;32.93;15.07;;;;;1.00;100310.00;;;;9972609;24;20607;-84
2024/01/14 15:17:19;;;;;;;28.63;15.67;;;;;1.00;100335.00;;;;9917513;29;20235;-83
2024/01/14 15:22:20;;;;;;;31.67;15.13;;;;;0.90;100322.00;;;;9978968;24;20277;-86
2024/01/14 15:27:21;;;;;;;28.37;14.57;;;;;0.80;100319.00;;;;9889787;29;20239;-85
2024/01/14 15:32:23;;;;;;;32.83;13.93;;;;;0.80;100323.00;;;;9882586;29;20541;-86
2024/01/14 15:37:24;;;;;;;32.83;14.77;;;;;0.70;100319.00;;;;9911392;29;20304;-83
2024/01/14 15:42:25;;;;;;;32.33;15.07;;;;;0.70;100309.00;;;;9884660;24;20837;-83
2024/01/14 15:47:26;;;;;;;36.60;16.43;;;;;0.60;100304.00;;;;9787523;29;20807;-78
2024/01/14 15:52:28;;;;;;;38.10;16.40;;;;;0.50;100305.00;;;;9803963;30;20327;-80
2024/01/14 15:57:29;;;;;;;33.13;16.30;;;;;0.50;100282.00;;;;9785365;30;20236;-78
2024/01/14 16:02:30;;;;;;;35.50;16.67;;;;;0.40;100278.00;;;;9809196;30;20347;-81
2024/01/14 16:07:34;;;;;;;37.97;15.40;;;;;0.40;100281.00;;;;9836741;30;20232;-78
2024/01/14 16:12:35;;;;;;;41.83;18.60;;;;;0.40;100280.00;;;;9825535;29;20262;-80
2024/01/14 16:17:37;;;;;;;36.30;16.70;;;;;0.40;100274.00;;;;9812350;30;20708;-79
2024/01/14 16:22:38;;;;;;;37.83;16.47;;;;;0.30;100269.00;;;;9802587;30;20232;-78
2024/01/14 16:27:39;;;;;;;31.87;15.03;;;;;0.30;100261.00;;;;9787330;30;20899;-78
2024/01/14 16:32:41;;;;;;;40.73;16.97;;;;;0.30;100252.00;;;;9802346;30;20244;-78
2024/01/14 16:37:43;;;;;;;36.17;17.53;;;;;0.30;100262.00;;;;9821019;30;20467;-81
2024/01/14 16:42:44;;;;;;;39.13;17.73;;;;;0.30;100256.00;;;;9803687;30;20845;-80
2024/01/14 16:47:45;;;;;;;38.80;16.83;;;;;0.30;100246.00;;;;9814469;30;20231;-80
2024/01/14 16:52:47;;;;;;;34.07;16.87;;;;;0.20;100222.00;;;;9804785;30;21008;-81
2024/01/14 16:57:48;;;;;;;32.87;16.43;;;;;0.10;100190.00;;;;9845055;29;20231;-79
2024/01/14 17:02:49;;;;;;;37.07;17.03;;;;;0.00;100203.00;;;;9828715;29;20243;-82
2024/01/14 17:07:50;;;;;;;38.13;16.70;;;;;0.00;100219.00;;;;9816107;30;20235;-81
2024/01/14 17:12:51;;;;;;;40.20;18.53;;;;;0.00;100228.00;;;;9807917;29;20366;-81
2024/01/14 17:17:53;;;;;;;43.23;18.37;;;;;0.00;100210.00;;;;9813244;30;20244;-81
2024/01/14 17:22:55;;;;;;;42.60;18.53;;;;;0.00;100225.00;;;;9800956;29;20262;-80
2024/01/14 17:27:56;;;;;;;42.27;19.33;;;;;0.10;100246.00;;;;9825340;29;20323;-81
2024/01/14 17:32:57;;;;;;;40.73;19.30;;;;;0.10;100252.00;;;;9807563;29;20275;-82
2024/01/14 17:37:59;;;;;;;38.77;19.23;;;;;0.10;100245.00;;;;9840377;29;20232;-82
2024/01/14 17:43:00;;;;;;;45.53;19.87;;;;;0.10;100222.00;;;;9819233;29;20290;-81
2024/01/14 17:48:02;;;;;;;50.70;20.33;;;;;0.10;100223.00;;;;9839765;29;20233;-82
2024/01/14 17:53:03;;;;;;;44.30;19.00;;;;;0.20;100200.00;;;;9814220;30;20242;-81
2024/01/14 17:58:07;;;;;;;44.93;21.13;;;;;0.20;100203.00;;;;9813794;29;20339;-81
2024/01/14 18:03:11;;;;;;;43.97;19.60;;;;;0.20;100195.00;;;;9813596;30;20356;-81
2024/01/14 18:08:20;;;;;;;46.77;20.57;;;;;0.20;100192.00;;;;9812104;30;20236;-81
2024/01/14 18:13:21;;;;;;;49.00;20.63;;;;;0.20;100191.00;;;;9832912;29;20267;-78
2024/01/14 18:18:23;;;;;;;47.97;20.17;;;;;0.20;100173.00;;;;9839075;29;20881;-79
2024/01/14 18:23:24;;;;;;;50.17;19.83;;;;;0.30;100171.00;;;;9804471;30;20817;-78
2024/01/14 18:28:25;;;;;;;49.37;23.33;;;;;0.20;100159.00;;;;9829080;29;20244;-79
2024/01/14 18:33:26;;;;;;;46.20;17.43;;;;;0.20;100160.00;;;;9816145;30;20260;-80
2024/01/14 18:38:28;;;;;;;50.27;21.37;;;;;0.30;100165.00;;;;9812084;29;20235;-80
2024/01/14 18:43:29;;;;;;;57.20;23.17;;;;;0.30;100173.00;;;;9817941;30;20243;-80
2024/01/14 18:48:30;;;;;;;57.60;21.97;;;;;0.30;100172.00;;;;9822198;29;20292;-80
2024/01/14 18:53:31;;;;;;;52.37;20.13;;;;;0.30;100168.00;;;;9824628;29;20236;-80
2024/01/14 18:58:32;;;;;;;58.17;24.17;;;;;0.40;100177.00;;;;9836105;29;20314;-81
2024/01/14 19:03:34;;;;;;;55.20;23.73;;;;;0.40;100171.00;;;;9823433;30;20245;-79
2024/01/14 19:08:35;;;;;;;48.63;22.10;;;;;0.30;100166.00;;;;9798868;29;20264;-80
2024/01/14 19:13:36;;;;;;;56.47;25.00;;;;;0.40;100174.00;;;;9819972;29;20228;-79
2024/01/14 19:18:38;;;;;;;59.80;26.37;;;;;0.40;100174.00;;;;9810904;29;20262;-80
2024/01/14 19:23:41;;;;;;;55.53;22.53;;;;;0.50;100173.00;;;;9837797;29;20245;-79
2024/01/14 19:28:43;;;;;;;60.80;23.67;;;;;0.50;100172.00;;;;9810379;30;20228;-79
2024/01/14 19:33:44;;;;;;;55.80;23.57;;;;;0.50;100180.00;;;;9819966;30;20236;-80
2024/01/14 19:38:45;;;;;;;55.27;24.67;;;;;0.50;100203.00;;;;9822837;29;20239;-79
2024/01/14 19:43:46;;;;;;;63.30;25.67;;;;;0.50;100199.00;;;;9794569;30;20323;-79
2024/01/14 19:48:48;;;;;;;55.30;24.37;;;;;0.50;100181.00;;;;9824439;30;20319;-79
2024/01/14 19:53:49;;;;;;;57.90;24.87;;;;;0.60;100173.00;;;;9819503;29;20232;-79
2024/01/14 19:58:50;;;;;;;61.03;24.50;;;;;0.60;100161.00;;;;9821476;30;20232;-79
2024/01/14 20:03:51;;;;;;;61.93;26.57;;;;;0.60;100161.00;;;;9810147;30;20756;-79
2024/01/14 20:08:52;;;;;;;62.43;27.07;;;;;0.60;100165.00;;;;9815346;30;20595;-80
2024/01/14 20:13:56;;;;;;;63.03;25.10;;;;;0.70;100159.00;;;;9830973;29;20243;-79
2024/01/14 20:18:58;;;;;;;57.63;26.37;;;;;0.70;100149.00;;;;9819895;30;20350;-80
2024/01/14 20:23:59;;;;;;;58.37;26.60;;;;;0.80;100161.00;;;;9789997;29;20247;-79
2024/01/14 20:29:01;;;;;;;54.80;23.97;;;;;0.80;100156.00;;;;9823387;29;20285;-79
2024/01/14 20:34:02;;;;;;;55.03;23.80;;;;;0.80;100156.00;;;;9832640;29;20232;-79
2024/01/14 20:39:04;;;;;;;52.70;23.63;;;;;0.80;100147.00;;;;9793281;29;20240;-79
2024/01/14 20:44:05;;;;;;;54.90;22.43;;;;;0.80;100138.00;;;;9802868;29;20239;-80
2024/01/14 20:49:06;;;;;;;52.60;22.83;;;;;0.90;100142.00;;;;9829931;29;20235;-79
2024/01/14 20:54:08;;;;;;;57.80;24.30;;;;;0.90;100134.00;;;;9828055;29;20248;-80
2024/01/14 20:59:09;;;;;;;61.10;25.67;;;;;0.90;100119.00;;;;9819550;30;20901;-78
2024/01/14 21:04:10;;;;;;;55.47;23.67;;;;;0.90;100127.00;;;;9834486;29;20293;-79
2024/01/14 21:09:12;;;;;;;55.50;24.93;;;;;0.90;100126.00;;;;9806018;29;20251;-81
2024/01/14 21:14:14;;;;;;;58.83;24.90;;;;;0.90;100121.00;;;;9845619;29;20224;-80
2024/01/14 21:19:15;;;;;;;54.57;24.57;;;;;0.90;100118.00;;;;9821718;29;20284;-80
2024/01/14 21:24:17;;;;;;;48.27;22.50;;;;;0.90;100107.00;;;;9822897;29;20235;-79
2024/01/14 21:29:19;;;;;;;52.23;24.07;;;;;1.00;100108.00;;;;9821155;30;20251;-79
2024/01/14 21:34:21;;;;;;;53.13;23.37;;;;;1.00;100108.00;;;;9834908;29;20326;-79
2024/01/14 21:39:22;;;;;;;53.90;22.17;;;;;1.00;100113.00;;;;9834734;29;20390;-81
2024/01/14 21:44:23;;;;;;;48.57;21.90;;;;;1.00;100116.00;;;;9818599;30;20318;-87
2024/01/14 21:49:24;;;;;;;56.17;23.10;;;;;1.00;100113.00;;;;9826772;30;20704;-85
2024/01/14 21:54:28;;;;;;;54.57;22.77;;;;;1.00;100112.00;;;;9825543;29;20253;-87
2024/01/14 21:59:29;;;;;;;44.93;19.40;;;;;1.00;100102.00;;;;9809363;30;20232;-85
2024/01/14 22:04:31;;;;;;;49.80;22.13;;;;;1.00;100106.00;;;;9864245;29;20236;-86
2024/01/14 22:09:32;;;;;;;45.90;20.60;;;;;1.00;100108.00;;;;9842614;29;20264;-89
2024/01/14 22:14:33;;;;;;;43.90;19.63;;;;;1.00;100099.00;;;;9815794;29;20232;-88
2024/01/14 22:19:39;;;;;;;40.67;20.00;;;;;1.00;100089.00;;;;9831333;30;20932;-89
2024/01/14 22:24:44;;;;;;;43.23;19.17;;;;;1.10;100091.00;;;;9842379;29;20300;-85
2024/01/14 22:29:45;;;;;;;40.47;17.47;;;;;1.10;100086.00;;;;9833803;30;20228;-87
2024/01/14 22:34:47;;;;;;;37.37;16.37;;;;;1.20;100091.00;;;;9855468;29;20275;-85
2024/01/14 22:39:48;;;;;;;37.63;18.93;;;;;1.20;100077.00;;;;9821652;29;20231;-86
2024/01/14 22:44:49;;;;;;;33.83;16.10;;;;;1.30;100079.00;;;;9817579;30;20247;-86
2024/01/14 22:49:50;;;;;;;36.07;16.97;;;;;1.30;100081.00;;;;9826589;30;20251;-84
2024/01/14 22:54:52;;;;;;;36.00;17.67;;;;;1.30;100074.00;;;;9842893;29;20236;-86
2024/01/14 22:59:54;;;;;;;36.23;18.20;;;;;1.30;100088.00;;;;9831358;29;20441;-87
2024/01/14 23:04:55;;;;;;;30.77;16.27;;;;;1.30;100081.00;;;;9828662;29;20239;-88
2024/01/14 23:09:56;;;;;;;35.47;16.60;;;;;1.30;100084.00;;;;9846014;30;20256;-87
2024/01/14 23:14:57;;;;;;;34.07;16.87;;;;;1.30;100096.00;;;;9838196;29;20272;-87
2024/01/14 23:19:58;;;;;;;38.70;18.07;;;;;1.40;100092.00;;;;9861646;29;20969;-86
2024/01/14 23:24:59;;;;;;;40.20;18.63;;;;;1.30;100077.00;;;;9806630;29;20282;-84
2024/01/14 23:30:01;;;;;;;40.70;17.80;;;;;1.30;100082.00;;;;9843764;29;20232;-88
2024/01/14 23:35:02;;;;;;;36.30;16.90;;;;;1.30;100067.00;;;;9855394;29;20232;-85
2024/01/14 23:40:04;;;;;;;39.77;17.47;;;;;1.30;100073.00;;;;9824996;29;20365;-87
2024/01/14 23:45:05;;;;;;;35.73;17.70;;;;;1.40;100065.00;;;;9833891;30;20634;-84
2024/01/14 23:50:07;;;;;;;31.53;15.63;;;;;1.40;100057.00;;;;9809954;29;20231;-88
2024/01/14 23:55:08;;;;;;;31.83;15.87;;;;;1.40;100045.00;;;;9823479;30;20684;-87
